Welaka, Florida
Current Conditions -  °F | °C
As of 1:50 PM on Thursday 23 Oct 2014 (Local Time) from KXFL Reporting Station
Scattered Clouds Scattered Clouds  
Wind Chill: 75°   Ceiling: Unl
Heat Index: 75°   Visibility: 7mi
Dew Point: 54°   Wind: 5mph
Humidity: 47%   Direction: 360°N
Pressure: 30.01"   Gusts: 17mph
Location:  29.48°N, 81.67°W
Report Text: KXFL 231750Z 36004G15KT 330V150 7SM SCT048 24/12 A3001
Loading
Personal Weather Stations






























Interactive Weather Map New forecast layout! Learn more

10-Day Weather Forecast

Advertisements
Track Severe Weather on mobile